Time;durP1;ratioP1;P1;durP2;ratioP2;P2;SDS_P1;SDS_P2;PMS_P1;PMS_P2;Temp;Humidity;BMP_temperature;BMP_pressure;BME280_temperature;BME280_humidity;BME280_pressure;Samples;Min_cycle;Max_cycle;Signal;HPM_P1;HPM_P2
2021/11/15 00:01:44;;;;;;;11.02;7.55;;;9.90;71.40;;;;;;4965217;28;20296;-79
2021/11/15 00:04:12;;;;;;;11.77;7.47;;;9.90;70.90;;;;;;4960313;28;20217;-81
2021/11/15 00:06:39;;;;;;;12.75;6.93;;;9.90;70.70;;;;;;4959657;28;20221;-79
2021/11/15 00:09:08;;;;;;;10.55;7.13;;;9.90;71.00;;;;;;4960565;28;20367;-80
2021/11/15 00:11:35;;;;;;;9.27;7.50;;;9.90;70.70;;;;;;4962234;28;20220;-80
2021/11/15 00:14:02;;;;;;;10.57;8.20;;;9.80;71.10;;;;;;4959510;28;20238;-79
2021/11/15 00:16:30;;;;;;;10.10;7.60;;;9.80;71.50;;;;;;4963177;28;20220;-80
2021/11/15 00:18:57;;;;;;;10.25;7.50;;;9.80;71.80;;;;;;4971247;28;20253;-80
2021/11/15 00:21:24;;;;;;;14.57;8.35;;;9.80;72.30;;;;;;4972835;28;20201;-80
2021/11/15 00:23:51;;;;;;;12.98;7.47;;;9.70;72.60;;;;;;4973387;28;20230;-80
2021/11/15 00:26:20;;;;;;;16.02;9.20;;;9.70;73.20;;;;;;4972402;28;20289;-80
2021/11/15 00:28:47;;;;;;;11.15;8.07;;;9.70;73.80;;;;;;4973022;28;20225;-80
2021/11/15 00:31:15;;;;;;;10.63;7.82;;;9.70;74.10;;;;;;4973315;28;20256;-80
2021/11/15 00:33:41;;;;;;;9.43;7.50;;;9.70;74.20;;;;;;4966962;28;20277;-81
2021/11/15 00:36:08;;;;;;;11.73;8.23;;;9.70;75.30;;;;;;4966915;28;20206;-80
2021/11/15 00:38:35;;;;;;;10.43;8.45;;;9.70;76.00;;;;;;4964225;28;20235;-79
2021/11/15 00:41:02;;;;;;;10.23;7.82;;;9.60;76.90;;;;;;4966030;28;20206;-81
2021/11/15 00:43:30;;;;;;;12.73;9.25;;;9.60;77.00;;;;;;4968213;28;20210;-81
2021/11/15 00:45:57;;;;;;;14.30;8.85;;;9.60;76.90;;;;;;4965783;28;20237;-80
2021/11/15 00:48:24;;;;;;;12.68;8.30;;;9.70;77.60;;;;;;4967056;28;20238;-79
2021/11/15 00:50:51;;;;;;;13.82;9.25;;;9.70;77.00;;;;;;4969874;28;20234;-81
2021/11/15 00:53:18;;;;;;;12.45;8.88;;;9.70;77.00;;;;;;4969586;28;20242;-81
2021/11/15 00:55:45;;;;;;;13.15;9.57;;;9.60;76.90;;;;;;4966976;28;20214;-80
2021/11/15 00:58:12;;;;;;;12.00;9.35;;;9.60;77.90;;;;;;4947302;28;20253;-81
2021/11/15 01:00:42;;;;;;;14.80;9.95;;;9.60;78.10;;;;;;4947350;29;20341;-80
2021/11/15 01:03:16;;;;;;;12.82;10.13;;;9.60;78.20;;;;;;4947733;29;20214;-81
2021/11/15 01:05:47;;;;;;;12.15;9.43;;;9.60;78.20;;;;;;4946289;29;20191;-80
2021/11/15 01:08:15;;;;;;;12.65;9.48;;;9.60;79.10;;;;;;4950644;29;20295;-81
2021/11/15 01:10:42;;;;;;;16.50;10.02;;;9.50;79.80;;;;;;4947288;29;20235;-81
2021/11/15 01:13:10;;;;;;;10.63;8.68;;;9.50;79.00;;;;;;4946904;29;20297;-80
2021/11/15 01:15:39;;;;;;;15.13;10.00;;;9.50;79.10;;;;;;4948431;29;20199;-80
2021/11/15 01:18:08;;;;;;;15.85;10.40;;;9.50;79.40;;;;;;4953313;29;20234;-79
2021/11/15 01:20:36;;;;;;;14.05;9.90;;;9.50;79.50;;;;;;4945305;29;20206;-78
2021/11/15 01:23:03;;;;;;;13.00;9.05;;;9.50;79.10;;;;;;4946831;29;20297;-79
2021/11/15 01:25:30;;;;;;;15.95;10.75;;;9.50;78.90;;;;;;4942645;29;20509;-79
2021/11/15 01:27:57;;;;;;;16.40;10.60;;;9.50;78.20;;;;;;4948435;29;20241;-80
2021/11/15 01:30:25;;;;;;;15.40;10.48;;;9.50;76.80;;;;;;4955034;29;20234;-81
2021/11/15 01:32:53;;;;;;;17.65;11.25;;;9.50;77.50;;;;;;4955794;29;20254;-80
2021/11/15 01:35:23;;;;;;;21.88;10.68;;;9.50;76.80;;;;;;4958806;29;20202;-80
2021/11/15 01:37:50;;;;;;;14.65;9.93;;;9.50;76.80;;;;;;4959235;29;20226;-80
2021/11/15 01:40:19;;;;;;;14.60;10.52;;;9.50;76.80;;;;;;4956059;29;20229;-80
2021/11/15 01:42:46;;;;;;;14.80;9.73;;;9.50;76.80;;;;;;4947462;29;20325;-79
2021/11/15 01:45:16;;;;;;;18.52;9.88;;;9.50;76.80;;;;;;4948911;29;20214;-79
2021/11/15 01:47:44;;;;;;;12.98;10.15;;;9.40;76.70;;;;;;4952426;29;20227;-81
2021/11/15 01:50:16;;;;;;;14.80;10.05;;;9.40;76.70;;;;;;4954218;29;20824;-81
2021/11/15 01:52:45;;;;;;;13.80;10.95;;;9.40;76.70;;;;;;4954473;29;20195;-81
2021/11/15 01:55:13;;;;;;;14.43;9.73;;;9.40;75.70;;;;;;4954439;29;20211;-80
2021/11/15 01:57:41;;;;;;;15.15;10.68;;;9.30;75.80;;;;;;4969537;28;20224;-81
2021/11/15 02:00:12;;;;;;;13.30;8.93;;;9.40;75.20;;;;;;4977572;28;20193;-80
2021/11/15 02:02:39;;;;;;;13.25;9.35;;;9.30;74.50;;;;;;4976256;28;20237;-79
2021/11/15 02:05:06;;;;;;;15.55;9.80;;;9.30;74.10;;;;;;4971745;28;20214;-80
2021/11/15 02:07:33;;;;;;;14.13;8.85;;;9.30;73.80;;;;;;4972952;28;20707;-80
2021/11/15 02:10:03;;;;;;;16.80;8.38;;;9.30;73.60;;;;;;4975303;28;20253;-81
2021/11/15 02:12:30;;;;;;;13.70;8.77;;;9.30;73.20;;;;;;4976362;28;20209;-81
2021/11/15 02:15:01;;;;;;;12.57;9.18;;;9.20;73.10;;;;;;4974591;28;20237;-81
2021/11/15 02:17:28;;;;;;;12.25;8.60;;;9.20;73.40;;;;;;4976741;28;20213;-81
2021/11/15 02:20:00;;;;;;;12.95;8.57;;;9.20;73.00;;;;;;4972730;28;20202;-80
2021/11/15 02:22:28;;;;;;;14.57;8.60;;;9.20;72.60;;;;;;4971068;28;20297;-81
2021/11/15 02:24:55;;;;;;;13.77;8.95;;;9.20;71.80;;;;;;4969086;28;20347;-80
2021/11/15 02:27:22;;;;;;;13.95;8.75;;;9.20;72.90;;;;;;4966180;28;20236;-79
2021/11/15 02:29:49;;;;;;;13.10;8.95;;;9.10;72.40;;;;;;4972108;28;20233;-79
2021/11/15 02:32:15;;;;;;;14.70;9.20;;;9.20;72.20;;;;;;4972263;28;20210;-80
2021/11/15 02:34:42;;;;;;;13.93;9.57;;;9.10;71.80;;;;;;4977376;28;20211;-79
2021/11/15 02:37:09;;;;;;;15.45;9.55;;;9.10;71.70;;;;;;4978275;28;20202;-80
2021/11/15 02:39:37;;;;;;;15.30;9.07;;;9.10;72.20;;;;;;4977739;28;20226;-80
2021/11/15 02:42:04;;;;;;;14.65;9.13;;;9.10;71.50;;;;;;4978275;28;20206;-80
2021/11/15 02:44:31;;;;;;;14.35;9.20;;;9.10;71.50;;;;;;4966765;28;20224;-79
2021/11/15 02:46:58;;;;;;;12.35;8.68;;;9.10;71.70;;;;;;4968676;28;20618;-79
2021/11/15 02:49:25;;;;;;;16.10;10.32;;;9.10;71.80;;;;;;4958381;28;20316;-79
2021/11/15 02:51:52;;;;;;;15.13;9.93;;;9.00;71.90;;;;;;4957964;28;20270;-79
2021/11/15 02:54:26;;;;;;;16.23;10.27;;;9.00;71.70;;;;;;4969253;28;20238;-80
2021/11/15 02:56:56;;;;;;;13.43;8.57;;;9.00;71.60;;;;;;4957017;28;20237;-80
2021/11/15 02:59:23;;;;;;;16.05;9.55;;;9.00;72.00;;;;;;4942417;29;20313;-80
2021/11/15 03:01:50;;;;;;;15.70;9.90;;;9.00;72.50;;;;;;4940817;29;20718;-79
2021/11/15 03:04:17;;;;;;;15.80;9.73;;;9.00;71.90;;;;;;4939985;29;20226;-81
2021/11/15 03:06:44;;;;;;;17.40;10.73;;;9.00;72.30;;;;;;4939797;29;20217;-80
2021/11/15 03:09:11;;;;;;;14.45;9.63;;;8.90;72.60;;;;;;4947595;29;20230;-80
2021/11/15 03:11:38;;;;;;;15.43;9.60;;;8.90;72.70;;;;;;4957771;28;20348;-80
2021/11/15 03:14:06;;;;;;;14.25;7.82;;;8.90;72.80;;;;;;4955365;28;20218;-79
2021/11/15 03:16:34;;;;;;;15.35;9.80;;;8.90;72.80;;;;;;4956964;28;20292;-79
2021/11/15 03:19:01;;;;;;;20.73;11.05;;;8.80;72.90;;;;;;4957065;28;20296;-80
2021/11/15 03:21:27;;;;;;;15.55;9.90;;;8.80;73.10;;;;;;4957885;28;20274;-79
2021/11/15 03:23:56;;;;;;;18.90;10.15;;;8.80;72.80;;;;;;4956924;28;20851;-79
2021/11/15 03:26:26;;;;;;;13.85;9.20;;;8.90;72.80;;;;;;4956387;28;20205;-79
2021/11/15 03:28:54;;;;;;;17.80;9.52;;;8.80;73.00;;;;;;4961638;28;20237;-79
2021/11/15 03:31:25;;;;;;;15.38;9.73;;;8.80;72.60;;;;;;4973710;28;20268;-80
2021/11/15 03:33:55;;;;;;;14.32;9.10;;;8.80;72.70;;;;;;4974458;28;20296;-79
2021/11/15 03:36:22;;;;;;;15.75;10.00;;;8.80;73.00;;;;;;4975318;28;20233;-80
2021/11/15 03:38:50;;;;;;;17.65;10.15;;;8.70;73.60;;;;;;4968273;28;20237;-80
2021/11/15 03:41:17;;;;;;;17.20;10.60;;;8.70;73.70;;;;;;4965189;28;20590;-80
2021/11/15 03:43:44;;;;;;;15.95;9.57;;;8.70;73.60;;;;;;4961274;28;20202;-79
2021/11/15 03:46:11;;;;;;;17.77;9.95;;;8.70;73.80;;;;;;4961896;28;20666;-79
2021/11/15 03:48:39;;;;;;;15.88;9.30;;;8.70;73.40;;;;;;4959967;28;20780;-80
2021/11/15 03:51:06;;;;;;;18.17;10.45;;;8.70;73.90;;;;;;4964672;28;20233;-80
2021/11/15 03:53:36;;;;;;;15.43;9.25;;;8.70;73.70;;;;;;4960075;28;20210;-80
2021/11/15 03:56:05;;;;;;;19.17;10.90;;;8.70;73.80;;;;;;4958832;28;20288;-79
2021/11/15 03:58:31;;;;;;;17.25;10.27;;;8.60;73.80;;;;;;4959141;28;20230;-81
2021/11/15 04:01:01;;;;;;;18.23;10.05;;;8.70;74.30;;;;;;4960077;28;20214;-79
2021/11/15 04:03:31;;;;;;;18.30;10.80;;;8.70;74.10;;;;;;4967299;28;20276;-79
2021/11/15 04:06:04;;;;;;;15.88;10.57;;;8.60;74.20;;;;;;4976413;28;20197;-79
2021/11/15 04:08:33;;;;;;;17.80;10.65;;;8.60;74.10;;;;;;4976114;28;20772;-78
2021/11/15 04:11:03;;;;;;;15.07;9.98;;;8.60;74.10;;;;;;4976460;28;20252;-78
2021/11/15 04:13:32;;;;;;;18.77;11.60;;;8.60;74.00;;;;;;4977230;28;20198;-78
2021/11/15 04:16:02;;;;;;;15.35;9.70;;;8.60;74.30;;;;;;4967100;28;20241;-80
2021/11/15 04:18:33;;;;;;;15.55;10.43;;;8.60;74.40;;;;;;4967252;28;20249;-81
2021/11/15 04:21:01;;;;;;;14.60;9.80;;;8.60;74.30;;;;;;4951226;28;20290;-78
2021/11/15 04:23:28;;;;;;;16.45;10.50;;;8.60;74.50;;;;;;4962739;28;20198;-79
2021/11/15 04:25:55;;;;;;;18.80;10.93;;;8.60;74.70;;;;;;4979704;28;20213;-80
2021/11/15 04:28:22;;;;;;;15.38;9.82;;;8.60;74.90;;;;;;4981097;28;20289;-79
2021/11/15 04:30:49;;;;;;;17.20;10.52;;;8.50;74.40;;;;;;4980257;28;20255;-79
2021/11/15 04:33:16;;;;;;;17.27;10.30;;;8.50;74.60;;;;;;4981678;28;20201;-79
2021/11/15 04:35:43;;;;;;;17.80;10.50;;;8.50;74.90;;;;;;4981670;28;20205;-78
2021/11/15 04:38:12;;;;;;;17.92;11.18;;;8.50;75.30;;;;;;4981295;28;20228;-80
2021/11/15 04:40:39;;;;;;;17.85;10.05;;;8.50;75.00;;;;;;4979961;28;20249;-79
2021/11/15 04:43:06;;;;;;;18.92;10.93;;;8.50;75.80;;;;;;4977918;28;20216;-80
2021/11/15 04:45:33;;;;;;;14.55;9.82;;;8.50;76.00;;;;;;4972035;28;20272;-80
2021/11/15 04:48:00;;;;;;;19.08;11.10;;;8.50;76.00;;;;;;4971515;28;20289;-80
2021/11/15 04:50:28;;;;;;;18.17;11.70;;;8.50;76.00;;;;;;4965617;28;20237;-80
2021/11/15 04:52:55;;;;;;;17.48;10.63;;;8.50;76.00;;;;;;4966251;28;20210;-79
2021/11/15 04:55:25;;;;;;;16.48;10.32;;;8.50;76.00;;;;;;4965243;28;20244;-81
2021/11/15 04:57:54;;;;;;;21.65;11.30;;;8.40;75.90;;;;;;4966388;28;20600;-80
2021/11/15 05:00:24;;;;;;;15.27;10.45;;;8.40;75.90;;;;;;4968364;28;20210;-79
2021/11/15 05:02:52;;;;;;;18.42;10.98;;;8.40;75.90;;;;;;4963044;28;20218;-79
2021/11/15 05:05:19;;;;;;;18.65;11.43;;;8.40;75.90;;;;;;4963075;28;20237;-79
2021/11/15 05:07:47;;;;;;;14.25;9.80;;;8.40;75.90;;;;;;4964996;28;20261;-79
2021/11/15 05:10:15;;;;;;;15.90;10.45;;;8.40;75.90;;;;;;4962933;28;20214;-79
2021/11/15 05:12:44;;;;;;;16.17;9.85;;;8.40;75.90;;;;;;4962771;28;20237;-79
2021/11/15 05:15:14;;;;;;;17.00;10.25;;;8.30;75.80;;;;;;4942687;28;20278;-79
2021/11/15 05:17:42;;;;;;;14.82;9.63;;;8.40;75.80;;;;;;4944149;29;20230;-80
2021/11/15 05:20:10;;;;;;;17.20;10.65;;;8.30;75.80;;;;;;4950790;29;20211;-80
2021/11/15 05:22:38;;;;;;;18.42;10.77;;;8.40;75.90;;;;;;4947698;29;20258;-80
2021/11/15 05:25:06;;;;;;;16.98;10.60;;;8.30;75.80;;;;;;4945340;29;20211;-80
2021/11/15 05:27:33;;;;;;;14.20;10.10;;;8.30;75.80;;;;;;4942770;29;20293;-80
2021/11/15 05:30:04;;;;;;;14.15;9.43;;;8.30;75.80;;;;;;4943991;29;20206;-79
2021/11/15 05:32:32;;;;;;;16.33;10.75;;;8.30;75.80;;;;;;4951719;29;20270;-80
2021/11/15 05:34:58;;;;;;;14.45;9.93;;;8.30;75.80;;;;;;4951680;29;20215;-80
2021/11/15 05:37:26;;;;;;;15.05;10.63;;;8.30;75.80;;;;;;4952578;29;20230;-80
2021/11/15 05:39:53;;;;;;;16.05;9.57;;;8.30;76.40;;;;;;4968594;29;20293;-79
2021/11/15 05:42:20;;;;;;;19.40;10.50;;;8.30;75.80;;;;;;4965877;28;20704;-81
2021/11/15 05:44:47;;;;;;;20.40;10.80;;;8.30;75.80;;;;;;4964597;28;20285;-79
2021/11/15 05:47:15;;;;;;;17.60;9.90;;;8.30;75.80;;;;;;4966115;28;20576;-78
2021/11/15 05:49:42;;;;;;;15.40;10.48;;;8.30;75.80;;;;;;4977318;28;20242;-79
2021/11/15 05:52:10;;;;;;;16.33;9.25;;;8.30;75.80;;;;;;4972078;28;20219;-79
2021/11/15 05:54:37;;;;;;;17.10;10.25;;;8.30;75.80;;;;;;4971421;28;20204;-80
2021/11/15 05:57:04;;;;;;;18.00;10.88;;;8.20;75.70;;;;;;4964299;28;20210;-80
2021/11/15 05:59:31;;;;;;;20.02;10.63;;;8.30;75.80;;;;;;4961631;28;20236;-80
2021/11/15 06:01:58;;;;;;;14.90;9.43;;;8.20;75.70;;;;;;4961768;28;20206;-79
2021/11/15 06:04:26;;;;;;;13.45;9.35;;;8.20;75.70;;;;;;4960769;28;20671;-80
2021/11/15 06:06:53;;;;;;;19.92;10.32;;;8.30;75.80;;;;;;4969543;28;20238;-80
2021/11/15 06:09:20;;;;;;;15.77;10.13;;;8.20;75.70;;;;;;4972544;28;20289;-80
2021/11/15 06:11:47;;;;;;;15.18;10.02;;;8.20;75.70;;;;;;4972721;28;20230;-80
2021/11/15 06:14:14;;;;;;;15.70;9.20;;;8.20;75.70;;;;;;4973164;28;20206;-80
2021/11/15 06:16:41;;;;;;;14.90;9.50;;;8.20;75.70;;;;;;4965318;28;20206;-80
2021/11/15 06:19:08;;;;;;;16.45;11.07;;;8.20;75.70;;;;;;4964110;28;20305;-81
2021/11/15 06:21:36;;;;;;;17.90;10.40;;;8.20;75.70;;;;;;4967978;28;20206;-80
2021/11/15 06:24:03;;;;;;;15.90;10.52;;;8.20;75.70;;;;;;4967589;28;20212;-81
2021/11/15 06:26:31;;;;;;;14.85;10.02;;;8.20;75.70;;;;;;4968505;28;20210;-80
2021/11/15 06:28:58;;;;;;;18.23;10.30;;;8.20;75.70;;;;;;4968620;28;20229;-81
2021/11/15 06:31:26;;;;;;;14.48;9.50;;;8.10;75.60;;;;;;4971395;28;20289;-80
2021/11/15 06:33:53;;;;;;;14.45;10.13;;;8.10;75.60;;;;;;4971199;28;20217;-79
2021/11/15 06:36:22;;;;;;;15.55;9.73;;;8.10;75.60;;;;;;4973792;28;20210;-80
2021/11/15 06:38:51;;;;;;;14.85;10.50;;;8.10;76.00;;;;;;4970388;28;20233;-79
2021/11/15 06:41:18;;;;;;;15.55;9.45;;;8.10;76.40;;;;;;4974127;28;20210;-80
2021/11/15 06:43:45;;;;;;;14.02;10.25;;;8.10;75.60;;;;;;4975609;28;20233;-78
2021/11/15 06:46:14;;;;;;;17.75;11.20;;;8.10;75.60;;;;;;4971517;28;20261;-79
2021/11/15 06:48:41;;;;;;;17.08;11.20;;;8.00;76.20;;;;;;4970100;28;20264;-79
2021/11/15 06:51:10;;;;;;;19.70;10.30;;;8.10;76.10;;;;;;4962535;28;20717;-79
2021/11/15 06:53:37;;;;;;;17.15;11.27;;;8.00;76.20;;;;;;4957327;29;20692;-79
2021/11/15 06:56:07;;;;;;;14.80;9.95;;;8.00;77.20;;;;;;4972185;28;20233;-80
2021/11/15 06:58:34;;;;;;;16.00;10.13;;;8.00;76.80;;;;;;4966714;28;20248;-78
2021/11/15 07:01:02;;;;;;;18.50;9.88;;;8.00;76.90;;;;;;4976028;28;20186;-80
2021/11/15 07:03:29;;;;;;;16.02;10.27;;;8.00;76.90;;;;;;4965684;28;20210;-81
2021/11/15 07:05:56;;;;;;;15.85;10.25;;;8.00;77.50;;;;;;4990237;28;20572;-79
2021/11/15 07:08:24;;;;;;;13.93;9.30;;;8.00;77.30;;;;;;4973417;28;20239;-79
2021/11/15 07:10:51;;;;;;;17.13;10.35;;;8.00;77.70;;;;;;4971693;28;20209;-79
2021/11/15 07:13:19;;;;;;;15.73;10.65;;;8.10;78.00;;;;;;4961107;28;20238;-79
2021/11/15 07:15:48;;;;;;;14.00;9.68;;;8.10;77.40;;;;;;4952041;29;20214;-80
2021/11/15 07:18:15;;;;;;;15.20;9.57;;;8.00;77.30;;;;;;4964030;29;20226;-78
2021/11/15 07:20:42;;;;;;;16.35;10.07;;;8.00;78.00;;;;;;4970884;28;20252;-79
2021/11/15 07:23:10;;;;;;;13.50;9.15;;;8.00;77.80;;;;;;4969116;28;20216;-77
2021/11/15 07:25:37;;;;;;;14.35;10.00;;;8.00;77.60;;;;;;4967427;28;20209;-78
2021/11/15 07:28:04;;;;;;;15.55;10.88;;;8.00;77.50;;;;;;4973550;28;20258;-76
2021/11/15 07:30:33;;;;;;;12.45;9.50;;;7.90;77.90;;;;;;4971907;28;20202;-77
2021/11/15 07:33:01;;;;;;;16.48;10.05;;;8.00;78.00;;;;;;4969488;28;20235;-77
2021/11/15 07:35:28;;;;;;;13.57;10.68;;;8.00;78.30;;;;;;4966783;28;20274;-78
2021/11/15 07:37:55;;;;;;;14.68;9.65;;;8.00;78.70;;;;;;4968752;28;20226;-77
2021/11/15 07:40:22;;;;;;;17.30;10.05;;;8.00;78.70;;;;;;4957597;28;20278;-78
2021/11/15 07:42:49;;;;;;;17.75;10.63;;;8.10;77.90;;;;;;4950333;29;20217;-78
2021/11/15 07:45:21;;;;;;;15.20;9.68;;;8.10;77.80;;;;;;4952730;29;20206;-77
2021/11/15 07:47:50;;;;;;;12.70;9.40;;;8.00;77.70;;;;;;4942284;29;20241;-79
2021/11/15 07:50:18;;;;;;;13.32;10.02;;;8.00;77.90;;;;;;4972453;29;20280;-78
2021/11/15 07:52:47;;;;;;;15.93;9.02;;;8.00;77.60;;;;;;4964615;28;20234;-76
2021/11/15 07:55:15;;;;;;;16.17;10.40;;;8.00;77.50;;;;;;4970508;28;20216;-78
2021/11/15 07:57:43;;;;;;;14.95;9.68;;;8.00;77.90;;;;;;4974931;28;20233;-78
2021/11/15 08:00:12;;;;;;;14.82;9.93;;;8.00;77.70;;;;;;4974871;28;20270;-79
2021/11/15 08:02:40;;;;;;;13.18;9.30;;;8.00;78.00;;;;;;4958206;28;20574;-77
2021/11/15 08:05:11;;;;;;;11.57;8.68;;;8.00;77.30;;;;;;4951525;29;20216;-79
2021/11/15 08:07:38;;;;;;;14.52;8.88;;;8.00;77.50;;;;;;4951687;29;20203;-78
2021/11/15 08:10:08;;;;;;;12.65;9.80;;;8.00;77.70;;;;;;4953657;29;20662;-78
2021/11/15 08:12:37;;;;;;;13.45;9.85;;;8.10;77.60;;;;;;4962630;28;20221;-77
2021/11/15 08:15:08;;;;;;;14.52;9.02;;;8.10;77.70;;;;;;4956462;28;20294;-76
2021/11/15 08:17:36;;;;;;;12.80;8.75;;;8.10;77.70;;;;;;4946452;28;20199;-78
2021/11/15 08:20:03;;;;;;;13.45;9.05;;;8.10;77.10;;;;;;4944695;29;20290;-78
2021/11/15 08:22:32;;;;;;;15.35;9.55;;;8.30;76.70;;;;;;4949071;29;20210;-78
2021/11/15 08:25:45;;;;;;;13.88;9.57;;;8.20;75.70;;;;;;4955982;29;20211;-79
2021/11/15 08:28:11;;;;;;;13.88;9.90;;;8.10;76.40;;;;;;4972587;28;20293;-81
2021/11/15 08:30:39;;;;;;;11.75;8.63;;;8.20;76.70;;;;;;4970965;28;20205;-78
2021/11/15 08:36:29;;;;;;;13.07;9.70;;;8.10;76.00;;;;;;4956166;29;20186;-78
2021/11/15 08:39:00;;;;;;;14.50;9.95;;;8.10;75.60;;;;;;4971521;28;20233;-77
2021/11/15 08:41:30;;;;;;;12.80;9.40;;;8.10;76.30;;;;;;4970565;28;20210;-78
2021/11/15 08:43:58;;;;;;;13.98;9.63;;;8.10;76.30;;;;;;4969557;28;20217;-78
2021/11/15 08:46:27;;;;;;;13.32;9.52;;;8.10;75.60;;;;;;4965644;28;20213;-78
2021/11/15 08:48:55;;;;;;;13.50;9.25;;;8.10;76.30;;;;;;4964864;28;20324;-78
2021/11/15 08:51:22;;;;;;;18.65;9.05;;;8.20;75.80;;;;;;4948395;28;20214;-78
2021/11/15 08:53:50;;;;;;;14.18;7.70;;;8.10;75.60;;;;;;4944284;29;20221;-80
2021/11/15 08:56:20;;;;;;;13.48;8.98;;;8.10;75.60;;;;;;4944714;29;20290;-79
2021/11/15 08:58:47;;;;;;;14.02;9.82;;;8.10;76.10;;;;;;4944722;29;20223;-78
2021/11/15 09:01:15;;;;;;;12.80;9.52;;;8.10;76.60;;;;;;4961217;28;20206;-75
2021/11/15 09:03:44;;;;;;;14.52;9.75;;;8.00;75.50;;;;;;4961003;28;20205;-77
2021/11/15 09:06:12;;;;;;;14.98;9.50;;;8.10;76.20;;;;;;4961316;28;20670;-79
2021/11/15 09:08:41;;;;;;;14.18;9.13;;;8.10;76.60;;;;;;4961300;28;20230;-77
2021/11/15 09:11:08;;;;;;;15.40;8.88;;;8.10;75.60;;;;;;4963680;28;20578;-77
2021/11/15 09:13:38;;;;;;;13.00;8.68;;;8.00;76.30;;;;;;4964766;28;20234;-77
2021/11/15 09:16:05;;;;;;;12.27;8.68;;;8.00;76.80;;;;;;4963934;28;20217;-77
2021/11/15 09:18:32;;;;;;;15.20;9.10;;;8.10;76.90;;;;;;4963734;28;20233;-77
2021/11/15 09:20:59;;;;;;;13.63;9.00;;;8.10;76.30;;;;;;4962563;28;20209;-76
2021/11/15 09:23:26;;;;;;;12.18;9.60;;;8.10;75.70;;;;;;4964101;28;20212;-78
2021/11/15 09:25:54;;;;;;;26.35;9.93;;;8.10;76.40;;;;;;4963995;28;20692;-76
2021/11/15 09:28:21;;;;;;;13.90;9.07;;;8.20;76.10;;;;;;4962629;28;20289;-77
2021/11/15 09:30:49;;;;;;;11.63;8.35;;;8.20;75.70;;;;;;4961685;28;20221;-76
2021/11/15 09:33:16;;;;;;;12.10;7.82;;;8.10;75.60;;;;;;4963191;28;20226;-78
2021/11/15 09:35:48;;;;;;;12.27;8.40;;;8.20;75.70;;;;;;4963407;28;20220;-78
2021/11/15 09:38:17;;;;;;;14.40;8.98;;;8.10;75.70;;;;;;4961911;28;20621;-76
2021/11/15 09:40:44;;;;;;;13.40;8.45;;;8.10;75.70;;;;;;4961335;28;20636;-76
2021/11/15 09:43:11;;;;;;;14.23;9.00;;;8.10;75.60;;;;;;4961532;28;20210;-77
2021/11/15 09:45:38;;;;;;;13.93;8.98;;;8.30;75.80;;;;;;4962038;28;20209;-77
2021/11/15 09:48:09;;;;;;;15.38;8.55;;;8.30;75.80;;;;;;4962610;28;20234;-76
2021/11/15 09:50:37;;;;;;;15.20;9.77;;;8.40;75.90;;;;;;4963602;28;20194;-77
2021/11/15 09:53:04;;;;;;;11.77;8.18;;;8.20;75.70;;;;;;4953517;28;20261;-77
2021/11/15 09:55:31;;;;;;;13.65;7.95;;;8.20;75.70;;;;;;4964600;28;20367;-79
2021/11/15 09:57:58;;;;;;;11.38;7.68;;;8.10;75.60;;;;;;4953606;28;20222;-78
2021/11/15 10:00:28;;;;;;;14.50;8.85;;;8.10;75.70;;;;;;4944454;29;20221;-78
2021/11/15 10:02:56;;;;;;;10.30;7.30;;;8.10;76.00;;;;;;4954618;28;20630;-77
2021/11/15 10:05:24;;;;;;;10.73;6.82;;;8.20;75.70;;;;;;4976936;28;20212;-77
2021/11/15 10:07:55;;;;;;;12.50;7.60;;;8.20;75.70;;;;;;4961525;28;20599;-79
2021/11/15 10:10:38;;;;;;;10.48;7.20;;;8.20;75.70;;;;;;4964044;28;20229;-78
2021/11/15 10:13:12;;;;;;;12.77;8.13;;;8.20;76.20;;;;;;4952276;28;20313;-77
2021/11/15 10:15:48;;;;;;;16.25;8.25;;;8.30;76.70;;;;;;4944668;29;20202;-77
2021/11/15 10:18:19;;;;;;;11.45;7.15;;;8.30;75.80;;;;;;4954077;29;20221;-77
2021/11/15 10:20:50;;;;;;;11.80;7.70;;;8.30;75.90;;;;;;4947558;28;20209;-76
2021/11/15 10:23:32;;;;;;;12.75;8.00;;;8.20;76.50;;;;;;4943123;29;20233;-80
2021/11/15 10:26:02;;;;;;;12.00;8.27;;;8.40;76.70;;;;;;4944437;29;20222;-79
2021/11/15 10:28:31;;;;;;;10.63;7.75;;;8.50;76.00;;;;;;4944779;29;20235;-78
2021/11/15 10:30:57;;;;;;;10.65;7.63;;;8.60;76.00;;;;;;4958675;28;20205;-76
2021/11/15 10:33:35;;;;;;;10.82;7.43;;;8.50;74.50;;;;;;4964640;28;20237;-77
2021/11/15 10:36:03;;;;;;;13.32;7.45;;;8.60;74.50;;;;;;4964768;28;20209;-77
2021/11/15 10:38:45;;;;;;;13.52;8.25;;;8.50;75.00;;;;;;4970613;28;20237;-76
2021/11/15 10:41:18;;;;;;;9.50;7.65;;;8.60;74.60;;;;;;4969346;28;20216;-77
2021/11/15 10:43:46;;;;;;;12.30;7.85;;;8.60;74.40;;;;;;4969582;28;20674;-78
2021/11/15 10:46:32;;;;;;;11.80;7.63;;;8.60;74.90;;;;;;4969320;28;20206;-78
2021/11/15 10:49:00;;;;;;;11.13;7.30;;;8.50;75.20;;;;;;4964468;28;20248;-77
2021/11/15 10:51:52;;;;;;;12.40;7.50;;;8.60;74.70;;;;;;4951796;29;20206;-78
2021/11/15 10:54:48;;;;;;;11.40;7.95;;;8.70;74.00;;;;;;4957388;29;20239;-77
2021/11/15 10:57:33;;;;;;;8.57;6.03;;;8.60;73.40;;;;;;4974925;28;20257;-76
2021/11/15 11:00:19;;;;;;;9.52;6.55;;;8.60;73.90;;;;;;4969528;28;20187;-76
2021/11/15 11:02:48;;;;;;;11.88;7.70;;;8.60;73.90;;;;;;4955176;29;20230;-76
2021/11/15 11:05:18;;;;;;;10.57;8.00;;;8.60;74.60;;;;;;4951363;29;20206;-79
2021/11/15 11:07:48;;;;;;;11.57;7.30;;;8.40;75.40;;;;;;4947853;29;20296;-79
2021/11/15 11:10:18;;;;;;;10.55;7.53;;;8.50;76.00;;;;;;4946786;29;20286;-78
2021/11/15 11:12:57;;;;;;;9.10;6.97;;;8.50;76.00;;;;;;4945661;29;20294;-77
2021/11/15 11:15:30;;;;;;;10.20;7.38;;;8.50;75.60;;;;;;4946359;29;20221;-77
2021/11/15 11:18:17;;;;;;;11.88;7.28;;;8.50;75.10;;;;;;4944333;29;20245;-76
2021/11/15 11:24:20;;;;;;;11.25;6.38;;;8.40;75.90;;;;;;4963664;28;20752;-76
2021/11/15 11:26:57;;;;;;;12.00;7.30;;;8.40;75.90;;;;;;4964351;28;20220;-77
2021/11/15 11:29:27;;;;;;;10.70;7.95;;;8.40;75.90;;;;;;4963678;28;20336;-77
2021/11/15 11:31:56;;;;;;;16.48;9.35;;;8.40;75.90;;;;;;4963811;28;20218;-77
2021/11/15 11:34:24;;;;;;;12.80;8.02;;;8.40;75.90;;;;;;4963825;28;20653;-77
2021/11/15 11:36:51;;;;;;;14.52;7.57;;;8.50;76.00;;;;;;4963510;28;20218;-76
2021/11/15 11:39:22;;;;;;;11.25;7.65;;;8.40;75.90;;;;;;4962933;28;20222;-76
2021/11/15 11:41:54;;;;;;;10.15;7.70;;;8.40;76.50;;;;;;4963013;28;20220;-76
2021/11/15 11:44:25;;;;;;;12.07;8.65;;;8.50;76.00;;;;;;4963849;28;20265;-76
2021/11/15 11:46:52;;;;;;;9.70;7.05;;;8.50;76.00;;;;;;4974213;28;20209;-76
2021/11/15 11:49:24;;;;;;;14.48;8.38;;;8.40;76.30;;;;;;4974041;28;20238;-77
2021/11/15 11:51:52;;;;;;;14.48;7.50;;;8.50;76.00;;;;;;4957261;28;20199;-76
2021/11/15 11:54:22;;;;;;;13.38;7.95;;;8.60;76.00;;;;;;4950337;29;20238;-76
2021/11/15 11:57:07;;;;;;;10.52;7.78;;;8.60;76.00;;;;;;4961196;29;20201;-76
2021/11/15 11:59:37;;;;;;;13.52;7.85;;;8.50;76.00;;;;;;4965724;28;20234;-77
2021/11/15 12:02:07;;;;;;;11.23;7.85;;;8.50;76.00;;;;;;4956464;28;20551;-78
2021/11/15 12:04:46;;;;;;;13.15;7.60;;;8.60;76.00;;;;;;4951470;29;20202;-75
2021/11/15 12:07:23;;;;;;;13.30;8.10;;;8.60;76.10;;;;;;4952262;29;20209;-78
2021/11/15 12:09:51;;;;;;;12.95;7.90;;;8.50;76.00;;;;;;4946665;29;20285;-77
2021/11/15 12:12:18;;;;;;;12.05;7.88;;;8.50;76.00;;;;;;4957726;28;20224;-76
2021/11/15 12:14:45;;;;;;;13.70;8.60;;;8.50;76.00;;;;;;4963461;28;20217;-76
2021/11/15 12:17:14;;;;;;;10.77;7.88;;;8.50;76.60;;;;;;4963491;28;20202;-79
2021/11/15 12:20:08;;;;;;;13.75;8.27;;;8.50;76.00;;;;;;4960766;28;20305;-77
2021/11/15 12:22:47;;;;;;;14.73;8.10;;;8.60;75.20;;;;;;4960965;28;20643;-75
2021/11/15 12:25:20;;;;;;;11.25;7.93;;;8.50;76.00;;;;;;4959249;28;20205;-77
2021/11/15 12:27:49;;;;;;;12.45;7.60;;;8.50;76.00;;;;;;4957081;28;20298;-76
2021/11/15 12:30:18;;;;;;;14.30;8.52;;;8.60;76.00;;;;;;4963533;28;20209;-76
2021/11/15 12:32:47;;;;;;;17.80;8.48;;;8.60;76.00;;;;;;4973290;28;20586;-77
2021/11/15 12:35:14;;;;;;;13.07;8.60;;;8.50;76.00;;;;;;4953143;28;20207;-77
2021/11/15 12:37:45;;;;;;;13.32;8.63;;;8.50;76.00;;;;;;4954966;29;20244;-75
2021/11/15 12:40:34;;;;;;;10.68;7.68;;;8.50;76.00;;;;;;4956235;28;20690;-77
2021/11/15 12:43:12;;;;;;;14.00;7.72;;;8.50;76.00;;;;;;4942324;29;20205;-77
2021/11/15 12:45:51;;;;;;;14.65;8.90;;;8.50;76.00;;;;;;4961379;28;20205;-75
2021/11/15 12:48:34;;;;;;;13.82;9.10;;;8.50;76.00;;;;;;4976493;28;20231;-76
2021/11/15 12:51:11;;;;;;;14.10;9.10;;;8.50;76.00;;;;;;4973451;28;20209;-77
2021/11/15 12:53:41;;;;;;;12.15;8.63;;;8.50;75.60;;;;;;4981181;28;20261;-76
2021/11/15 12:56:11;;;;;;;20.15;8.13;;;8.60;75.40;;;;;;4955093;29;20698;-75
2021/11/15 12:58:42;;;;;;;14.90;9.30;;;8.60;74.80;;;;;;4960982;28;20230;-76
2021/11/15 13:01:09;;;;;;;14.43;9.10;;;8.60;74.90;;;;;;4961565;28;20220;-77